D/T METAR WX W/DIR W/SPE G/SPE TEMP DEWP
19/03/19 03:50 EGJJ 190350Z AUTO 26003KT 9999 HZ SCT026/// OVC030/// 08/07 Q1026 HZ W (260°) 3.5mph 8°C 7°C
19/03/19 03:20 EGJJ 190320Z AUTO 28002KT 9999 FEW011/// OVC031/// 08/07 Q1026 W (280°) 2.3mph 8°C 7°C
19/03/19 02:50 EGJJ 190250Z AUTO 30003KT 9999 OVC031/// 08/07 Q1026 WNW (300°) 3.5mph 8°C 7°C
19/03/19 02:20 EGJJ 190220Z AUTO VRB01KT 9999 OVC031/// 08/07 Q1026 N (0°) 1.2mph 8°C 7°C
19/03/19 01:50 EGJJ 190150Z AUTO VRB02KT 9999 FEW027/// OVC031/// 08/07 Q1026 N (0°) 2.3mph 8°C 7°C
19/03/19 01:20 EGJJ 190120Z AUTO 33003KT 300V360 9999 FEW028/// OVC034/// 08/07 Q1026 NNW (330°) 3.5mph 8°C 7°C
19/03/19 00:50 EGJJ 190050Z AUTO VRB02KT 9999 BKN032/// 07/07 Q1026 N (0°) 2.3mph 7°C 7°C
19/03/19 00:20 EGJJ 190020Z AUTO 32003KT 270V350 9999 BKN033/// 07/07 Q1026 NW (320°) 3.5mph 7°C 7°C
18/03/19 23:50 EGJJ 182350Z AUTO 31003KT 9999 BKN033/// BKN037/// 07/06 Q1026 NW (310°) 3.5mph 7°C 6°C
18/03/19 22:50 EGJJ 182250Z AUTO 32004KT 9999 FEW012/// SCT015/// 07/06 Q1026 NW (320°) 4.6mph 7°C 6°C
18/03/19 22:20 EGJJ 182220Z AUTO 31005KT 9999 FEW013/// 07/06 Q1026 NW (310°) 5.8mph 7°C 6°C
18/03/19 21:20 EGJJ 182120Z AUTO 30004KT 9999 SCT010/// BKN013/// BKN018/// 08/07 Q1025 WNW (300°) 4.6mph 8°C 7°C
18/03/19 20:50 EGJJ 182050Z 31007KT 9999 FEW011 SCT014 BKN035 08/07 Q1025 NW (310°) 8.1mph 8°C 7°C
18/03/19 20:20 EGJJ 182020Z 29007KT 9999 VCSH FEW008 SCT012 08/07 Q1025 RESHRA VCSH WNW (290°) 8.1mph 8°C 7°C
18/03/19 19:50 EGJJ 181950Z 30006KT 9999 FEW011 SCT014 08/07 Q1025 WNW (300°) 6.9mph 8°C 7°C
18/03/19 19:20 EGJJ 181920Z 30007KT 9999 FEW010 SCT013 08/07 Q1025 WNW (300°) 8.1mph 8°C 7°C
18/03/19 18:50 EGJJ 181850Z 29008KT 9999 FEW011 SCT022 08/06 Q1025 WNW (290°) 9.2mph 8°C 6°C
18/03/19 18:20 EGJJ 181820Z 29010KT 9999 FEW011 SCT013 08/06 Q1024 WNW (290°) 11.5mph 8°C 6°C
18/03/19 17:50 EGJJ 181750Z 29011KT 9999 SCT013 BKN032 08/06 Q1024 WNW (290°) 12.7mph 8°C 6°C
18/03/19 17:20 EGJJ 181720Z 29012KT 9999 FEW013 SCT024 08/06 Q1024 WNW (290°) 13.8mph 8°C 6°C
18/03/19 16:50 EGJJ 181650Z 30008KT 9999 FEW015 SCT024 08/06 Q1024 WNW (300°) 9.2mph 8°C 6°C
18/03/19 16:20 EGJJ 181620Z 29010KT 9999 VCSH FEW009 SCT033 08/06 Q1024 VCSH WNW (290°) 11.5mph 8°C 6°C
18/03/19 15:50 EGJJ 181550Z 28011KT 9999 FEW012 SCT030 08/06 Q1024 W (280°) 12.7mph 8°C 6°C
18/03/19 15:20 EGJJ 181520Z 28013KT 9999 FEW017 SCT026 09/06 Q1024 W (280°) 15.0mph 9°C 6°C
18/03/19 14:50 EGJJ 181450Z 27014KT 9999 -SHRA FEW018 SCT036 09/05 Q1024 -SHRA W (270°) 16.1mph 9°C 5°C
18/03/19 14:20 EGJJ 181420Z 27015KT 9999 -SHRA FEW018 SCT033 BKN047 09/05 Q1024 -SHRA W (270°) 17.3mph 9°C 5°C
18/03/19 13:50 EGJJ 181350Z 27017KT 9999 VCSH FEW018 SCT033 09/05 Q1024 VCSH W (270°) 19.6mph 9°C 5°C
18/03/19 13:20 EGJJ 181320Z 28012KT 9999 VCSH FEW017 SCT020 11/07 Q1024 VCSH W (280°) 13.8mph 11°C 7°C
18/03/19 12:50 EGJJ 181250Z 29011KT 270V350 9999 VCSH FEW011 SCT025 09/05 Q1024 VCSH WNW (290°) 12.7mph 9°C 5°C
18/03/19 12:20 EGJJ 181220Z 29013KT 9999 VCSH FEW016 SCT030 10/06 Q1024 VCSH WNW (290°) 15.0mph 10°C 6°C
18/03/19 11:50 EGJJ 181150Z 29013KT 9999 FEW018 10/06 Q1024 WNW (290°) 15.0mph 10°C 6°C
18/03/19 11:20 EGJJ 181120Z 30011KT 270V330 9999 FEW018 09/06 Q1024 WNW (300°) 12.7mph 9°C 6°C
18/03/19 10:50 EGJJ 181050Z 30012KT 270V340 9999 SCT018 10/06 Q1024 WNW (300°) 13.8mph 10°C 6°C
18/03/19 10:20 EGJJ 181020Z 30012KT 9999 SCT017 10/06 Q1024 WNW (300°) 13.8mph 10°C 6°C
18/03/19 09:50 EGJJ 180950Z 30012KT 9999 SCT017 10/06 Q1024 WNW (300°) 13.8mph 10°C 6°C
18/03/19 09:20 EGJJ 180920Z 30009KT 9999 FEW017 10/06 Q1023 WNW (300°) 10.4mph 10°C 6°C
18/03/19 08:50 EGJJ 180850Z 30010KT 280V340 9999 FEW018 09/06 Q1023 WNW (300°) 11.5mph 9°C 6°C
18/03/19 08:20 EGJJ 180820Z 30010KT 9999 VCSH FEW017 09/06 Q1023 VCSH WNW (300°) 11.5mph 9°C 6°C
18/03/19 07:50 EGJJ 180750Z 30010KT 9999 VCSH FEW016 09/06 Q1023 VCSH WNW (300°) 11.5mph 9°C 6°C
18/03/19 07:20 EGJJ 180720Z 31010KT 9999 FEW017 08/06 Q1022 NW (310°) 11.5mph 8°C 6°C
18/03/19 06:50 EGJJ 180650Z 31010KT 9999 FEW016 08/06 Q1022 NW (310°) 11.5mph 8°C 6°C
18/03/19 06:20 EGJJ 180620Z 31009KT 9999 VCSH FEW015 08/06 Q1022 VCSH NW (310°) 10.4mph 8°C 6°C
18/03/19 05:50 EGJJ 180550Z 31009KT 9999 FEW017 08/05 Q1022 NW (310°) 10.4mph 8°C 5°C
18/03/19 04:50 EGJJ 180450Z AUTO 31007KT 9999 NCD 08/06 Q1021 NW (310°) 8.1mph 8°C 6°C
18/03/19 04:20 EGJJ 180420Z AUTO 31009KT 280V340 9999 FEW016/// 08/06 Q1021 NW (310°) 10.4mph 8°C 6°C
18/03/19 03:50 EGJJ 180350Z AUTO 31011KT 9999 NCD 08/06 Q1021 NW (310°) 12.7mph 8°C 6°C
18/03/19 03:20 EGJJ 180320Z AUTO 31011KT 9999 NCD 08/06 Q1021 NW (310°) 12.7mph 8°C 6°C
18/03/19 02:50 EGJJ 180250Z AUTO 30013KT 9999 NCD 08/06 Q1021 WNW (300°) 15.0mph 8°C 6°C
18/03/19 02:20 EGJJ 180220Z AUTO 30014KT 270V330 9999 FEW015/// SCT018/// 08/06 Q1020 WNW (300°) 16.1mph 8°C 6°C
18/03/19 01:50 EGJJ 180150Z AUTO 30013KT 270V330 9999 FEW017/// 08/06 Q1020 WNW (300°) 15.0mph 8°C 6°C
18/03/19 01:20 EGJJ 180120Z AUTO 30013KT 9999 FEW017/// 08/06 Q1020 WNW (300°) 15.0mph 8°C 6°C
18/03/19 00:50 EGJJ 180050Z AUTO 30015KT 9999 FEW016/// SCT020/// BKN022/// 09/07 Q1020 WNW (300°) 17.3mph 9°C 7°C
18/03/19 00:20 EGJJ 180020Z AUTO 30016KT 9999 FEW017/// BKN020/// 09/07 Q1019 WNW (300°) 18.4mph 9°C 7°C
17/03/19 23:50 EGJJ 172350Z AUTO 30014KT 9999 FEW016/// 09/06 Q1019 WNW (300°) 16.1mph 9°C 6°C
17/03/19 23:20 EGJJ 172320Z AUTO 30016KT 9999 FEW018/// 09/06 Q1018 WNW (300°) 18.4mph 9°C 6°C
17/03/19 22:50 EGJJ 172250Z AUTO 30015KT 9999 FEW018/// SCT024/// 09/06 Q1018 WNW (300°) 17.3mph 9°C 6°C
17/03/19 22:20 EGJJ 172220Z AUTO 30015KT 9999 FEW017/// SCT021/// 09/06 Q1018 RERA WNW (300°) 17.3mph 9°C 6°C
17/03/19 21:50 EGJJ 172150Z AUTO 30017G27KT 9999 FEW019/// BKN021/// BKN028/// 09/06 Q1018 RERA WNW (300°) 19.6mph 31.1mph 9°C 6°C
17/03/19 21:20 EGJJ 172120Z 29018KT 9999 -SHRA FEW011 SCT023 09/06 Q1017 -SHRA WNW (290°) 20.7mph 9°C 6°C
17/03/19 20:50 EGJJ 172050Z 29018KT 9999 FEW026 SCT030 09/05 Q1017 WNW (290°) 20.7mph 9°C 5°C
17/03/19 20:20 EGJJ 172020Z 29019KT 9999 FEW024 SCT027 09/05 Q1017 WNW (290°) 21.9mph 9°C 5°C
17/03/19 19:50 EGJJ 171950Z 29019KT 9999 -SHRA FEW022 SCT028 08/05 Q1016 -SHRA WNW (290°) 21.9mph 8°C 5°C
17/03/19 19:20 EGJJ 171920Z 29020KT 9999 FEW028 08/04 Q1016 WNW (290°) 23.0mph 8°C 4°C
17/03/19 18:50 EGJJ 171850Z 29020KT 9999 FEW029 08/03 Q1016 WNW (290°) 23.0mph 8°C 3°C
17/03/19 18:20 EGJJ 171820Z 29019KT 9999 FEW030 08/03 Q1015 WNW (290°) 21.9mph 8°C 3°C
17/03/19 17:50 EGJJ 171750Z 29018KT 9999 FEW027 08/03 Q1015 WNW (290°) 20.7mph 8°C 3°C
17/03/19 17:20 EGJJ 171720Z 29019KT 9999 FEW023 08/04 Q1015 WNW (290°) 21.9mph 8°C 4°C
17/03/19 16:50 EGJJ 171650Z 29018KT 9999 FEW023 09/04 Q1014 WNW (290°) 20.7mph 9°C 4°C
17/03/19 16:20 EGJJ 171620Z 28016KT 9999 FEW021 09/04 Q1014 W (280°) 18.4mph 9°C 4°C
17/03/19 15:20 EGJJ 171520Z 28016KT 9999 FEW015CB SCT019 09/04 Q1013 W (280°) 18.4mph 9°C 4°C
17/03/19 14:50 EGJJ 171450Z 29019KT 9999 FEW015CB SCT022 08/05 Q1013 WNW (290°) 21.9mph 8°C 5°C
17/03/19 13:50 EGJJ 171350Z 28017KT 9999 VCSH FEW015CB SCT026 BKN029 08/05 Q1012 VCSH W (280°) 19.6mph 8°C 5°C
17/03/19 13:20 EGJJ 171320Z 26020KT 9999 FEW015CB SCT027 09/05 Q1012 W (260°) 23.0mph 9°C 5°C
17/03/19 12:50 EGJJ 171250Z 26020KT 9999 VCSH FEW010 FEW015CB SCT020 07/05 Q1012 VCSH W (260°) 23.0mph 7°C 5°C
17/03/19 11:50 EGJJ 171150Z 27016KT 9999 VCSH FEW015CB SCT026 09/04 Q1011 VCSH W (270°) 18.4mph 9°C 4°C
17/03/19 11:20 EGJJ 171120Z 27020KT 9999 FEW015CB SCT026 09/04 Q1011 W (270°) 23.0mph 9°C 4°C
17/03/19 10:50 EGJJ 171050Z 27019KT 9999 VCSH FEW015CB 08/03 Q1011 VCSH W (270°) 21.9mph 8°C 3°C
17/03/19 09:50 EGJJ 170950Z 29016G29KT 9999 VCSH FEW015CB SCT025 05/01 Q1011 RESHRA VCSH WNW (290°) 18.4mph 33.4mph 5°C 1°C
17/03/19 08:50 EGJJ 170850Z 29013KT 260V330 9999 VCSH FEW016CB SCT024 07/04 Q1010 VCSH WNW (290°) 15.0mph 7°C 4°C
17/03/19 08:20 EGJJ 170820Z 28017KT 9999 VCSH FEW016CB SCT023 07/03 Q1009 VCSH W (280°) 19.6mph 7°C 3°C
17/03/19 07:50 EGJJ 170750Z 27017KT 9999 FEW016CB SCT023 06/02 Q1008 W (270°) 19.6mph 6°C 2°C
17/03/19 07:20 EGJJ 170720Z 28023G33KT 9999 VCSH FEW016CB SCT023 05/02 Q1007 VCSH W (280°) 26.5mph 38.0mph 5°C 2°C
17/03/19 06:50 EGJJ 170650Z 27018G29KT 9999 FEW019CB SCT025 06/03 Q1007 W (270°) 20.7mph 33.4mph 6°C 3°C
17/03/19 06:20 EGJJ 170620Z 29019KT 9999 FEW019CB SCT023 06/02 Q1007 WNW (290°) 21.9mph 6°C 2°C
17/03/19 05:20 EGJJ 170520Z AUTO 29008KT 9999 FEW045/// 06/02 Q1006 RERA WNW (290°) 9.2mph 6°C 2°C
17/03/19 04:50 EGJJ 170450Z AUTO 29024G34KT 9999 RA FEW028/// BKN037/// BKN044/// 06/03 Q1006 RA WNW (290°) 27.6mph 39.1mph 6°C 3°C
17/03/19 04:20 EGJJ 170420Z AUTO 29016KT 9999 SCT030/// SCT039/// 08/03 Q1005 WNW (290°) 18.4mph 8°C 3°C
17/03/19 03:50 EGJJ 170350Z AUTO 29018KT 9999 FEW029/// 08/03 Q1005 WNW (290°) 20.7mph 8°C 3°C
17/03/19 03:20 EGJJ 170320Z AUTO 28017KT 9999 SCT025/// SCT029/// 08/03 Q1004 RESHRA W (280°) 19.6mph 8°C 3°C
17/03/19 02:50 EGJJ 170250Z AUTO 29018KT 9999 NCD 08/04 Q1004 RESHRA WNW (290°) 20.7mph 8°C 4°C
17/03/19 02:20 EGJJ 170220Z AUTO 29018G28KT 9999 -DZ FEW026/// BKN045/// 07/04 Q1004 RESHRA -DZ WNW (290°) 20.7mph 32.2mph 7°C 4°C
17/03/19 01:50 EGJJ 170150Z AUTO 29016KT 9999 FEW024/// BKN027/// BKN031/// 08/05 Q1004 RESHRA WNW (290°) 18.4mph 8°C 5°C
17/03/19 01:20 EGJJ 170120Z AUTO 28018KT 9999 SCT023/// BKN026/// BKN031/// 08/06 Q1003 RERA W (280°) 20.7mph 8°C 6°C
17/03/19 00:50 EGJJ 170050Z AUTO 28018KT 9999 FEW018/// SCT022/// BKN025/// 08/06 Q1003 RERA W (280°) 20.7mph 8°C 6°C
17/03/19 00:20 EGJJ 170020Z AUTO 28015KT 9999 -RA SCT017/// BKN020/// BKN023/// 08/06 Q1003 REDZ -RA W (280°) 17.3mph 8°C 6°C
16/03/19 23:50 EGJJ 162350Z AUTO 29019KT 8000 DZ FEW009/// SCT014/// BKN021/// 08/07 Q1003 RERA DZ WNW (290°) 21.9mph 8°C 7°C
16/03/19 23:20 EGJJ 162320Z AUTO 26017KT 9999 DZ FEW007/// SCT009/// BKN011/// 08/08 Q1002 RERA DZ W (260°) 19.6mph 8°C 8°C
16/03/19 22:50 EGJJ 162250Z AUTO 26020KT 5000 RA SCT006/// BKN008/// OVC010/// 08/08 Q1002 RA W (260°) 23.0mph 8°C 8°C
16/03/19 22:20 EGJJ 162220Z AUTO 25021KT 5000 RA SCT006/// BKN008/// BKN009/// 08/08 Q1002 REDZ RA WSW (250°) 24.2mph 8°C 8°C
16/03/19 21:50 EGJJ 162150Z AUTO 21019KT 5000 RA BKN009/// BKN010/// OVC013/// 09/08 Q1001 REDZ RA SSW (210°) 21.9mph 9°C 8°C
16/03/19 21:20 EGJJ 162120Z AUTO 21022G34KT 9999 BKN016/// OVC019/// 10/08 Q1001 REDZ SSW (210°) 25.3mph 39.1mph 10°C 8°C
16/03/19 20:50 EGJJ 162050Z AUTO 21022KT 9999 OVC019/// 08/06 Q1002 REDZ SSW (210°) 25.3mph 8°C 6°C
16/03/19 20:20 EGJJ 162020Z 20021G32KT 9999 FEW017 BKN020 10/07 Q1002 SSW (200°) 24.2mph 36.8mph 10°C 7°C
16/03/19 19:50 EGJJ 161950Z 21022KT 9999 FEW023 BKN026 10/07 Q1003 SSW (210°) 25.3mph 10°C 7°C
16/03/19 19:20 EGJJ 161920Z 21022KT 9999 BKN024 10/07 Q1003 SSW (210°) 25.3mph 10°C 7°C
16/03/19 18:50 EGJJ 161850Z 21021G32KT 9999 FEW033 BKN038 10/07 Q1003 SSW (210°) 24.2mph 36.8mph 10°C 7°C
16/03/19 18:20 EGJJ 161820Z 22022G32KT 9999 FEW031 BKN035 10/07 Q1004 SW (220°) 25.3mph 36.8mph 10°C 7°C
16/03/19 17:50 EGJJ 161750Z 22022G33KT 9999 FEW029 BKN034 10/07 Q1004 SW (220°) 25.3mph 38.0mph 10°C 7°C
16/03/19 17:20 EGJJ 161720Z 22021KT 9999 FEW027 BKN032 11/07 Q1005 SW (220°) 24.2mph 11°C 7°C
16/03/19 16:50 EGJJ 161650Z 22019KT 9999 FEW028 BKN032 11/07 Q1006 SW (220°) 21.9mph 11°C 7°C
16/03/19 16:20 EGJJ 161620Z 22018KT 9999 FEW028 BKN032 11/07 Q1006 SW (220°) 20.7mph 11°C 7°C
16/03/19 15:50 EGJJ 161550Z 22019KT 9999 FEW029 BKN032 11/07 Q1007 SW (220°) 21.9mph 11°C 7°C
16/03/19 15:20 EGJJ 161520Z 22020KT 9999 FEW029 BKN032 11/07 Q1007 SW (220°) 23.0mph 11°C 7°C
16/03/19 14:50 EGJJ 161450Z 22017G27KT 9999 BKN032 11/07 Q1007 SW (220°) 19.6mph 31.1mph 11°C 7°C
16/03/19 14:20 EGJJ 161420Z 21017KT 9999 BKN032 12/08 Q1008 SSW (210°) 19.6mph 12°C 8°C
16/03/19 13:50 EGJJ 161350Z 21017KT 9999 BKN032 12/08 Q1008 SSW (210°) 19.6mph 12°C 8°C
16/03/19 13:20 EGJJ 161320Z 22019KT 9999 BKN033 13/08 Q1009 SW (220°) 21.9mph 13°C 8°C
16/03/19 12:50 EGJJ 161250Z 22016G26KT 9999 BKN030 12/08 Q1009 SW (220°) 18.4mph 29.9mph 12°C 8°C
16/03/19 11:50 EGJJ 161150Z 23020KT 9999 FEW030 12/08 Q1010 SW (230°) 23.0mph 12°C 8°C
16/03/19 11:20 EGJJ 161120Z 22018KT 9999 BKN030 11/07 Q1011 SW (220°) 20.7mph 11°C 7°C
16/03/19 10:20 EGJJ 161020Z 22017KT 9999 FEW026 BKN030 11/07 Q1011 SW (220°) 19.6mph 11°C 7°C
16/03/19 09:50 EGJJ 160950Z 23021KT 9999 FEW026 BKN030 10/07 Q1012 SW (230°) 24.2mph 10°C 7°C
16/03/19 08:50 EGJJ 160850Z 23019KT 9999 FEW025 BKN028 10/07 Q1012 SW (230°) 21.9mph 10°C 7°C
16/03/19 08:20 EGJJ 160820Z 23022KT 9999 FEW023 BKN030 10/07 Q1012 SW (230°) 25.3mph 10°C 7°C
16/03/19 07:20 EGJJ 160720Z 22017KT 9999 FEW026 BKN029 10/07 Q1013 SW (220°) 19.6mph 10°C 7°C
16/03/19 06:50 EGJJ 160650Z 23021G31KT 9999 FEW026 BKN030 10/07 Q1013 SW (230°) 24.2mph 35.7mph 10°C 7°C
16/03/19 06:20 EGJJ 160620Z 23022KT 9999 FEW022 BKN028 10/07 Q1014 SW (230°) 25.3mph 10°C 7°C
16/03/19 05:50 EGJJ 160550Z 23021KT 9999 -DZ FEW018 BKN022 10/08 Q1014 -DZ SW (230°) 24.2mph 10°C 8°C
16/03/19 05:20 EGJJ 160520Z AUTO 24018KT 9999 FEW020/// BKN026/// OVC029/// 09/08 Q1014 REDZ WSW (240°) 20.7mph 9°C 8°C
16/03/19 04:50 EGJJ 160450Z AUTO 24022KT 9999 FEW017/// SCT019/// BKN023/// 10/08 Q1014 REDZ WSW (240°) 25.3mph 10°C 8°C
16/03/19 04:20 EGJJ 160420Z AUTO 23017KT 9999 -DZ SCT018/// SCT022/// BKN025/// 10/08 Q1014 -DZ SW (230°) 19.6mph 10°C 8°C
16/03/19 03:50 EGJJ 160350Z AUTO 24021KT 9999 BKN028/// OVC031/// 10/08 Q1014 WSW (240°) 24.2mph 10°C 8°C
16/03/19 03:20 EGJJ 160320Z AUTO 24018KT 9999 FEW020/// SCT022/// OVC030/// 10/09 Q1015 RESHRA WSW (240°) 20.7mph 10°C 9°C
16/03/19 02:50 EGJJ 160250Z AUTO 24017KT 9999 FEW011/// BKN013/// OVC015/// 10/09 Q1015 RESHRA WSW (240°) 19.6mph 10°C 9°C
16/03/19 02:20 EGJJ 160220Z AUTO 23018KT 9999 FEW014/// SCT016/// BKN022/// 09/09 Q1016 RERA SW (230°) 20.7mph 9°C 9°C
16/03/19 01:50 EGJJ 160150Z AUTO 23018KT 5000 -DZ FEW006/// SCT008/// BKN011/// 09/09 Q1016 RERA -DZ SW (230°) 20.7mph 9°C 9°C
16/03/19 01:20 EGJJ 160120Z AUTO 23021KT 9999 FEW012/// SCT015/// BKN021/// 10/09 Q1016 SW (230°) 24.2mph 10°C 9°C
16/03/19 00:50 EGJJ 160050Z AUTO 23019KT 9999 SCT019/// OVC022/// 10/09 Q1016 SW (230°) 21.9mph 10°C 9°C
16/03/19 00:20 EGJJ 160020Z AUTO 23020KT 9999 BKN018/// OVC021/// 10/09 Q1017 SW (230°) 23.0mph 10°C 9°C
15/03/19 23:50 EGJJ 152350Z AUTO 24020KT 9999 FEW010/// BKN017/// OVC019/// 10/09 Q1017 WSW (240°) 23.0mph 10°C 9°C
15/03/19 23:20 EGJJ 152320Z AUTO 24017KT 9999 FEW007/// SCT010/// BKN016/// 09/09 Q1018 WSW (240°) 19.6mph 9°C 9°C
15/03/19 22:50 EGJJ 152250Z AUTO 25020KT 9000 HZ SCT003/// BKN006/// BKN010/// 09/09 Q1018 HZ WSW (250°) 23.0mph 9°C 9°C
15/03/19 22:20 EGJJ 152220Z AUTO 25020KT 9999 FEW004/// OVC017/// 09/09 Q1018 REDZ WSW (250°) 23.0mph 9°C 9°C
15/03/19 21:50 EGJJ 152150Z 25019KT 6000 FEW001 BKN003 10/09 Q1018 WSW (250°) 21.9mph 10°C 9°C